Time;durP1;ratioP1;P1;durP2;ratioP2;P2;SDS_P1;SDS_P2;PMS_P1;PMS_P2;Temp;Humidity;BMP_temperature;BMP_pressure;BME280_temperature;BME280_humidity;BME280_pressure;Samples;Min_cycle;Max_cycle;Signal;HPM_P1;HPM_P2
2022/09/13 00:01:27;;;;;;;;;;;;;;;;;;6193512;23;19990;-81
2022/09/13 00:03:53;;;;;;;;;;;;;;;;;;6190456;23;19962;-80
2022/09/13 00:06:18;;;;;;;;;;;;;;;;;;6217405;23;19912;-83
2022/09/13 00:08:44;;;;;;;;;;;;;;;;;;6223391;23;19912;-82
2022/09/13 00:11:10;;;;;;;;;;;;;;;;;;6207634;23;19914;-81
2022/09/13 00:13:35;;;;;;;;;;;;;;;;;;6212893;23;19963;-82
2022/09/13 00:16:02;;;;;;;;;;;;;;;;;;6207954;23;19912;-83
2022/09/13 00:18:28;;;;;;;;;;;;;;;;;;6215398;23;19916;-84
2022/09/13 00:20:54;;;;;;;;;;;;;;;;;;6240426;23;19959;-83
2022/09/13 00:23:19;;;;;;;;;;;;;;;;;;6209276;23;19911;-83
2022/09/13 00:25:45;;;;;;;;;;;;;;;;;;6207535;23;19951;-82
2022/09/13 00:28:10;;;;;;;;;;;;;;;;;;6234131;23;20245;-83
2022/09/13 00:30:36;;;;;;;;;;;;;;;;;;6230978;23;19912;-83
2022/09/13 00:33:03;;;;;;;;;;;;;;;;;;6227913;23;20338;-82
2022/09/13 00:35:28;;;;;;;;;;;;;;;;;;6229498;23;19908;-82
2022/09/13 00:37:54;;;;;;;;;;;;;;;;;;6225724;23;19912;-81
2022/09/13 00:40:20;;;;;;;;;;;;;;;;;;6211948;23;19923;-85
2022/09/13 00:42:46;;;;;;;;;;;;;;;;;;6239802;23;19993;-84
2022/09/13 00:45:11;;;;;;;;;;;;;;;;;;6212913;23;19920;-83
2022/09/13 00:47:37;;;;;;;;;;;;;;;;;;6238978;23;19939;-83
2022/09/13 00:50:03;;;;;;;;;;;;;;;;;;6235488;23;19940;-84
2022/09/13 00:52:28;;;;;;;;;;;;;;;;;;6209671;23;19919;-85
2022/09/13 00:54:54;;;;;;;;;;;;;;;;;;6211023;23;19931;-82
2022/09/13 00:57:20;;;;;;;;;;;;;;;;;;6207455;23;19922;-83
2022/09/13 00:59:46;;;;;;;;;;;;;;;;;;6234733;23;19939;-83
2022/09/13 01:02:12;;;;;;;;;;;;;;;;;;6240779;23;19901;-85
2022/09/13 01:04:37;;;;;;;;;;;;;;;;;;6242377;22;19915;-86
2022/09/13 01:07:03;;;;;;;;;;;;;;;;;;6230769;22;19928;-86
2022/09/13 01:09:28;;;;;;;;;;;;;;;;;;6225451;22;19935;-88
2022/09/13 01:14:37;;;;;;;;;;;;;;;;;;6273112;22;19908;-86
2022/09/13 01:17:02;;;;;;;;;;;;;;;;;;6224466;22;19908;-86
2022/09/13 01:19:28;;;;;;;;;;;;;;;;;;6241598;23;19903;-84
2022/09/13 01:21:53;;;;;;;;;;;;;;;;;;6241366;22;19922;-82
2022/09/13 01:24:19;;;;;;;;;;;;;;;;;;6242322;22;19919;-87
2022/09/13 01:26:45;;;;;;;;;;;;;;;;;;6234630;22;19940;-82
2022/09/13 01:29:10;;;;;;;;;;;;;;;;;;6231137;23;19912;-83
2022/09/13 01:31:36;;;;;;;;;;;;;;;;;;6233877;23;19934;-83
2022/09/13 01:34:01;;;;;;;;;;;;;;;;;;6232180;23;20332;-83
2022/09/13 01:36:30;;;;;;;;;;;;;;;;;;6208450;23;19916;-83
2022/09/13 01:38:56;;;;;;;;;;;;;;;;;;6205512;23;19919;-83
2022/09/13 01:41:22;;;;;;;;;;;;;;;;;;6204367;23;19920;-83
2022/09/13 01:43:48;;;;;;;;;;;;;;;;;;6205031;23;19923;-84
2022/09/13 01:46:13;;;;;;;;;;;;;;;;;;6232125;23;19912;-83
2022/09/13 01:48:39;;;;;;;;;;;;;;;;;;6230777;23;19916;-86
2022/09/13 01:51:05;;;;;;;;;;;;;;;;;;6228667;23;19912;-85
2022/09/13 01:53:30;;;;;;;;;;;;;;;;;;6203986;23;19919;-82
2022/09/13 01:55:56;;;;;;;;;;;;;;;;;;6229471;23;19920;-83
2022/09/13 01:58:21;;;;;;;;;;;;;;;;;;6202750;23;19935;-83
2022/09/13 02:00:47;;;;;;;;;;;;;;;;;;6231352;23;19936;-82
2022/09/13 02:03:12;;;;;;;;;;;;;;;;;;6232170;23;19912;-83
2022/09/13 02:05:38;;;;;;;;;;;;;;;;;;6207887;23;19908;-81
2022/09/13 02:08:04;;;;;;;;;;;;;;;;;;6236457;23;19974;-83
2022/09/13 02:10:29;;;;;;;;;;;;;;;;;;6183101;23;19932;-84
2022/09/13 02:12:55;;;;;;;;;;;;;;;;;;6213142;23;19908;-83
2022/09/13 02:15:21;;;;;;;;;;;;;;;;;;6212616;23;19900;-84
2022/09/13 02:17:46;;;;;;;;;;;;;;;;;;6214348;23;19948;-83
2022/09/13 02:20:12;;;;;;;;;;;;;;;;;;6212520;23;19916;-80
2022/09/13 02:22:37;;;;;;;;;;;;;;;;;;6208268;23;20075;-84
2022/09/13 02:25:03;;;;;;;;;;;;;;;;;;6174077;23;19943;-83
2022/09/13 02:27:29;;;;;;;;;;;;;;;;;;6201150;23;19920;-84
2022/09/13 02:29:54;;;;;;;;;;;;;;;;;;6201649;23;19912;-84
2022/09/13 02:32:21;;;;;;;;;;;;;;;;;;6203427;23;19955;-84
2022/09/13 02:34:47;;;;;;;;;;;;;;;;;;6203174;23;19916;-84
2022/09/13 02:37:12;;;;;;;;;;;;;;;;;;6204851;23;19935;-83
2022/09/13 02:39:38;;;;;;;;;;;;;;;;;;6203066;23;19927;-83
2022/09/13 02:42:04;;;;;;;;;;;;;;;;;;6203563;23;19972;-84
2022/09/13 02:44:30;;;;;;;;;;;;;;;;;;6204627;23;19924;-85
2022/09/13 02:46:55;;;;;;;;;;;;;;;;;;6207273;23;19971;-83
2022/09/13 02:49:23;;;;;;;;;;;;;;;;;;6204330;23;19908;-83
2022/09/13 02:51:49;;;;;;;;;;;;;;;;;;6205074;23;19923;-82
2022/09/13 02:54:14;;;;;;;;;;;;;;;;;;6197539;23;19912;-83
2022/09/13 02:56:40;;;;;;;;;;;;;;;;;;6199015;23;19918;-84
2022/09/13 02:59:05;;;;;;;;;;;;;;;;;;6211208;23;20170;-85
2022/09/13 03:01:31;;;;;;;;;;;;;;;;;;6223020;22;19946;-85
2022/09/13 03:03:57;;;;;;;;;;;;;;;;;;6241638;23;20363;-85
2022/09/13 03:06:22;;;;;;;;;;;;;;;;;;6181559;23;20023;-80
2022/09/13 03:08:48;;;;;;;;;;;;;;;;;;6167370;23;19912;-80
2022/09/13 03:11:13;;;;;;;;;;;;;;;;;;6188269;23;20523;-81
2022/09/13 03:13:40;;;;;;;;;;;;;;;;;;6216400;23;19933;-82
2022/09/13 03:16:05;;;;;;;;;;;;;;;;;;6216207;23;19963;-82
2022/09/13 03:18:30;;;;;;;;;;;;;;;;;;6194003;23;19912;-82
2022/09/13 03:20:56;;;;;;;;;;;;;;;;;;6212896;23;19919;-75
2022/09/13 03:23:22;;;;;;;;;;;;;;;;;;6210989;23;19918;-74
2022/09/13 03:25:47;;;;;;;;;;;;;;;;;;6211079;23;19912;-74
2022/09/13 03:28:13;;;;;;;;;;;;;;;;;;6184773;23;19954;-74
2022/09/13 03:30:39;;;;;;;;;;;;;;;;;;6211036;23;19912;-74
2022/09/13 03:33:04;;;;;;;;;;;;;;;;;;6211650;23;19916;-73
2022/09/13 03:35:30;;;;;;;;;;;;;;;;;;6211900;23;19935;-74
2022/09/13 03:37:55;;;;;;;;;;;;;;;;;;6185218;23;19912;-75
2022/09/13 03:40:21;;;;;;;;;;;;;;;;;;6184786;23;19969;-72
2022/09/13 03:42:46;;;;;;;;;;;;;;;;;;6184953;23;20557;-75
2022/09/13 03:45:12;;;;;;;;;;;;;;;;;;6211701;23;19970;-74
2022/09/13 03:47:38;;;;;;;;;;;;;;;;;;6211995;23;19918;-74
2022/09/13 03:50:03;;;;;;;;;;;;;;;;;;6192031;23;19911;-84
2022/09/13 03:52:29;;;;;;;;;;;;;;;;;;6234156;23;19892;-86
2022/09/13 03:54:54;;;;;;;;;;;;;;;;;;6212083;23;19923;-81
2022/09/13 03:57:20;;;;;;;;;;;;;;;;;;6238256;22;19910;-87
2022/09/13 03:59:45;;;;;;;;;;;;;;;;;;6240256;23;19924;-86
2022/09/13 04:02:11;;;;;;;;;;;;;;;;;;6249844;23;19920;-85
2022/09/13 04:04:37;;;;;;;;;;;;;;;;;;6231511;23;19923;-84
2022/09/13 04:07:03;;;;;;;;;;;;;;;;;;6231600;23;19968;-81
2022/09/13 04:09:28;;;;;;;;;;;;;;;;;;6226576;23;19947;-84
2022/09/13 04:11:53;;;;;;;;;;;;;;;;;;6233638;23;19920;-83
2022/09/13 04:14:19;;;;;;;;;;;;;;;;;;6234379;23;19939;-84
2022/09/13 04:16:45;;;;;;;;;;;;;;;;;;6223167;23;20329;-82
2022/09/13 04:19:10;;;;;;;;;;;;;;;;;;6226218;23;19912;-86
2022/09/13 04:21:37;;;;;;;;;;;;;;;;;;6235944;23;19916;-87
2022/09/13 04:24:02;;;;;;;;;;;;;;;;;;6235023;23;19900;-88
2022/09/13 04:26:28;;;;;;;;;;;;;;;;;;6238614;23;19999;-83
